sensor_id;sensor_type;location;lat;lon;timestamp;pressure;altitude;pressure_sealevel;temperature;humidity
85560;BME280;76003;49.038;16.594;2024-02-26T00:00:15;98355.00;;;4.88;84.53
85560;BME280;76003;49.038;16.594;2024-02-26T00:02:56;98351.50;;;4.82;85.22
85560;BME280;76003;49.038;16.594;2024-02-26T00:05:22;98358.25;;;4.80;85.56
85560;BME280;76003;49.038;16.594;2024-02-26T00:08:08;98323.13;;;4.54;85.00
85560;BME280;76003;49.038;16.594;2024-02-26T00:10:49;98343.97;;;4.64;85.51
85560;BME280;76003;49.038;16.594;2024-02-26T00:13:29;98321.78;;;4.47;85.34
85560;BME280;76003;49.038;16.594;2024-02-26T00:16:10;98317.19;;;4.42;85.63
85560;BME280;76003;49.038;16.594;2024-02-26T00:18:50;98318.78;;;4.53;86.06
85560;BME280;76003;49.038;16.594;2024-02-26T00:21:31;98332.31;;;4.68;85.53
85560;BME280;76003;49.038;16.594;2024-02-26T00:24:11;98310.13;;;4.72;85.10
85560;BME280;76003;49.038;16.594;2024-02-26T00:26:37;98331.50;;;4.88;84.70
85560;BME280;76003;49.038;16.594;2024-02-26T00:29:24;98333.63;;;4.86;85.22
85560;BME280;76003;49.038;16.594;2024-02-26T00:31:50;98299.88;;;4.53;85.92
85560;BME280;76003;49.038;16.594;2024-02-26T00:34:37;98298.81;;;4.54;86.13
85560;BME280;76003;49.038;16.594;2024-02-26T00:37:18;98316.34;;;4.67;85.69
85560;BME280;76003;49.038;16.594;2024-02-26T00:39:44;98299.63;;;4.45;85.94
85560;BME280;76003;49.038;16.594;2024-02-26T00:42:32;98290.69;;;4.44;85.06
85560;BME280;76003;49.038;16.594;2024-02-26T00:45:58;98326.13;;;4.53;85.04
85560;BME280;76003;49.038;16.594;2024-02-26T00:49:23;98296.91;;;4.15;84.72
85560;BME280;76003;49.038;16.594;2024-02-26T00:52:48;98305.03;;;4.25;86.04
85560;BME280;76003;49.038;16.594;2024-02-26T00:56:14;98316.88;;;4.04;86.55
85560;BME280;76003;49.038;16.594;2024-02-26T00:59:40;98312.56;;;3.98;87.30
85560;BME280;76003;49.038;16.594;2024-02-26T01:03:05;98279.88;;;3.99;87.55
85560;BME280;76003;49.038;16.594;2024-02-26T01:06:30;98297.44;;;4.12;86.86
85560;BME280;76003;49.038;16.594;2024-02-26T01:08:56;98306.34;;;3.92;87.55
85560;BME280;76003;49.038;16.594;2024-02-26T01:11:42;98286.91;;;3.95;89.70
85560;BME280;76003;49.038;16.594;2024-02-26T01:14:09;98256.31;;;3.60;88.15
85560;BME280;76003;49.038;16.594;2024-02-26T01:16:56;98284.13;;;3.60;89.59
85560;BME280;76003;49.038;16.594;2024-02-26T01:19:22;98287.38;;;3.67;89.42
85560;BME280;76003;49.038;16.594;2024-02-26T01:22:24;98275.72;;;3.47;89.59
85560;BME280;76003;49.038;16.594;2024-02-26T01:25:05;98255.19;;;3.41;90.01
85560;BME280;76003;49.038;16.594;2024-02-26T01:27:45;98276.56;;;3.67;90.36
85560;BME280;76003;49.038;16.594;2024-02-26T01:30:11;98278.25;;;3.98;90.81
85560;BME280;76003;49.038;16.594;2024-02-26T01:33:53;98257.47;;;3.94;90.54
85560;BME280;76003;49.038;16.594;2024-02-26T01:37:19;98257.72;;;3.97;91.05
85560;BME280;76003;49.038;16.594;2024-02-26T01:40:44;98289.34;;;4.42;89.80
85560;BME280;76003;49.038;16.594;2024-02-26T01:43:39;98266.38;;;4.19;90.46
85560;BME280;76003;49.038;16.594;2024-02-26T01:46:06;98272.88;;;4.23;89.39
85560;BME280;76003;49.038;16.594;2024-02-26T01:48:54;98268.28;;;4.14;89.02
85560;BME280;76003;49.038;16.594;2024-02-26T01:51:20;98249.91;;;4.06;89.26
85560;BME280;76003;49.038;16.594;2024-02-26T01:54:07;98233.94;;;3.79;89.39
85560;BME280;76003;49.038;16.594;2024-02-26T01:56:34;98258.28;;;4.09;89.68
85560;BME280;76003;49.038;16.594;2024-02-26T01:59:39;98243.41;;;3.87;89.45
85560;BME280;76003;49.038;16.594;2024-02-26T02:02:06;98267.72;;;3.87;89.41
85560;BME280;76003;49.038;16.594;2024-02-26T02:04:55;98222.81;;;3.41;89.66
85560;BME280;76003;49.038;16.594;2024-02-26T02:08:21;98263.84;;;3.48;90.01
85560;BME280;76003;49.038;16.594;2024-02-26T02:11:48;98263.31;;;3.51;91.23
85560;BME280;76003;49.038;16.594;2024-02-26T02:15:14;98275.72;;;3.47;91.23
85560;BME280;76003;49.038;16.594;2024-02-26T02:18:39;98282.75;;;3.53;91.83
85560;BME280;76003;49.038;16.594;2024-02-26T02:21:20;98247.97;;;3.61;91.32
85560;BME280;76003;49.038;16.594;2024-02-26T02:24:45;98275.81;;;4.07;91.10
85560;BME280;76003;49.038;16.594;2024-02-26T02:27:12;98261.47;;;3.66;90.40
85560;BME280;76003;49.038;16.594;2024-02-26T02:29:58;98247.13;;;3.56;90.67
85560;BME280;76003;49.038;16.594;2024-02-26T02:32:25;98276.25;;;3.49;90.14
85560;BME280;76003;49.038;16.594;2024-02-26T02:35:11;98279.13;;;3.17;90.26
85560;BME280;76003;49.038;16.594;2024-02-26T02:37:37;98263.22;;;3.21;91.14
85560;BME280;76003;49.038;16.594;2024-02-26T02:40:24;98239.66;;;2.96;91.32
85560;BME280;76003;49.038;16.594;2024-02-26T02:43:04;98247.97;;;2.85;90.37
85560;BME280;76003;49.038;16.594;2024-02-26T02:45:30;98234.41;;;2.75;91.93
85560;BME280;76003;49.038;16.594;2024-02-26T02:49:12;98247.63;;;2.76;92.43
85560;BME280;76003;49.038;16.594;2024-02-26T02:51:53;98258.97;;;2.78;92.46
85560;BME280;76003;49.038;16.594;2024-02-26T02:54:38;98249.47;;;2.66;92.64
85560;BME280;76003;49.038;16.594;2024-02-26T02:57:21;98253.69;;;2.98;93.35
85560;BME280;76003;49.038;16.594;2024-02-26T03:00:01;98232.56;;;2.85;93.15
85560;BME280;76003;49.038;16.594;2024-02-26T03:02:44;98237.50;;;2.98;93.35
85560;BME280;76003;49.038;16.594;2024-02-26T03:05:25;98230.72;;;2.91;93.50
85560;BME280;76003;49.038;16.594;2024-02-26T03:07:51;98245.78;;;2.82;93.11
85560;BME280;76003;49.038;16.594;2024-02-26T03:10:38;98253.13;;;2.91;93.55
85560;BME280;76003;49.038;16.594;2024-02-26T03:13:04;98242.59;;;2.95;93.87
85560;BME280;76003;49.038;16.594;2024-02-26T03:15:51;98249.34;;;2.97;93.44
85560;BME280;76003;49.038;16.594;2024-02-26T03:18:17;98217.72;;;2.78;93.62
85560;BME280;76003;49.038;16.594;2024-02-26T03:21:03;98231.22;;;2.83;93.50
85560;BME280;76003;49.038;16.594;2024-02-26T03:23:44;98251.25;;;2.92;93.95
85560;BME280;76003;49.038;16.594;2024-02-26T03:26:24;98239.88;;;2.85;93.68
85560;BME280;76003;49.038;16.594;2024-02-26T03:29:05;98252.25;;;2.81;93.49
85560;BME280;76003;49.038;16.594;2024-02-26T03:31:46;98259.03;;;2.88;93.62
85560;BME280;76003;49.038;16.594;2024-02-26T03:34:28;98231.72;;;2.70;93.46
85560;BME280;76003;49.038;16.594;2024-02-26T03:37:08;98243.59;;;2.79;93.77
85560;BME280;76003;49.038;16.594;2024-02-26T03:39:51;98227.66;;;2.67;93.82
85560;BME280;76003;49.038;16.594;2024-02-26T03:42:31;98245.25;;;2.85;93.96
85560;BME280;76003;49.038;16.594;2024-02-26T03:44:57;98219.06;;;2.75;93.72
85560;BME280;76003;49.038;16.594;2024-02-26T03:47:43;98245.28;;;2.90;93.80
85560;BME280;76003;49.038;16.594;2024-02-26T03:50:09;98219.84;;;2.71;93.35
85560;BME280;76003;49.038;16.594;2024-02-26T03:52:56;98219.84;;;2.71;93.26
85560;BME280;76003;49.038;16.594;2024-02-26T03:55:38;98240.63;;;2.70;93.15
85560;BME280;76003;49.038;16.594;2024-02-26T03:58:18;98236.28;;;2.69;93.11
85560;BME280;76003;49.038;16.594;2024-02-26T04:00:44;98229.38;;;2.88;93.85
85560;BME280;76003;49.038;16.594;2024-02-26T04:03:33;98210.97;;;2.75;92.95
85560;BME280;76003;49.038;16.594;2024-02-26T04:06:13;98232.97;;;3.09;93.32
85560;BME280;76003;49.038;16.594;2024-02-26T04:08:54;98236.50;;;3.14;93.71
85560;BME280;76003;49.038;16.594;2024-02-26T04:11:34;98242.47;;;3.26;93.55
85560;BME280;76003;49.038;16.594;2024-02-26T04:14:00;98203.56;;;3.07;93.40
85560;BME280;76003;49.038;16.594;2024-02-26T04:17:42;98218.91;;;3.07;93.24
85560;BME280;76003;49.038;16.594;2024-02-26T04:20:13;98242.16;;;3.18;92.79
85560;BME280;76003;49.038;16.594;2024-02-26T04:23:16;98245.09;;;3.11;92.95
85560;BME280;76003;49.038;16.594;2024-02-26T04:26:41;98216.84;;;3.29;93.39
85560;BME280;76003;49.038;16.594;2024-02-26T04:30:07;98209.38;;;4.11;93.77
85560;BME280;76003;49.038;16.594;2024-02-26T04:32:34;98205.84;;;4.20;92.92
85560;BME280;76003;49.038;16.594;2024-02-26T04:35:20;98236.09;;;4.22;92.09
85560;BME280;76003;49.038;16.594;2024-02-26T04:37:46;98201.81;;;4.18;92.08
85560;BME280;76003;49.038;16.594;2024-02-26T04:40:32;98219.09;;;4.37;92.19
85560;BME280;76003;49.038;16.594;2024-02-26T04:43:58;98226.94;;;4.38;91.97
85560;BME280;76003;49.038;16.594;2024-02-26T04:47:23;98222.84;;;4.56;92.12
85560;BME280;76003;49.038;16.594;2024-02-26T04:50:48;98233.94;;;4.54;92.06
85560;BME280;76003;49.038;16.594;2024-02-26T04:54:14;98219.84;;;4.52;91.98
85560;BME280;76003;49.038;16.594;2024-02-26T04:56:40;98224.75;;;4.50;91.62
85560;BME280;76003;49.038;16.594;2024-02-26T04:59:26;98207.69;;;4.50;91.74
85560;BME280;76003;49.038;16.594;2024-02-26T05:02:06;98195.78;;;4.61;91.85
85560;BME280;76003;49.038;16.594;2024-02-26T05:04:32;98224.94;;;4.84;92.25
85560;BME280;76003;49.038;16.594;2024-02-26T05:07:13;98209.91;;;5.12;91.34
85560;BME280;76003;49.038;16.594;2024-02-26T05:09:40;98218.28;;;5.20;90.85
85560;BME280;76003;49.038;16.594;2024-02-26T05:12:28;98212.88;;;5.20;90.45
85560;BME280;76003;49.038;16.594;2024-02-26T05:14:54;98143.03;;;4.74;90.41
85560;BME280;76003;49.038;16.594;2024-02-26T05:17:57;98203.47;;;5.03;90.54
85560;BME280;76003;49.038;16.594;2024-02-26T05:20:25;98232.00;;;5.39;90.94
85560;BME280;76003;49.038;16.594;2024-02-26T05:22:51;98222.50;;;5.46;90.53
85560;BME280;76003;49.038;16.594;2024-02-26T05:25:20;98222.25;;;5.38;90.44
85560;BME280;76003;49.038;16.594;2024-02-26T05:27:46;98214.38;;;5.41;89.73
85560;BME280;76003;49.038;16.594;2024-02-26T05:30:12;98200.38;;;5.34;89.79
85560;BME280;76003;49.038;16.594;2024-02-26T05:32:38;98202.28;;;5.29;90.03
85560;BME280;76003;49.038;16.594;2024-02-26T05:35:25;98187.41;;;5.21;90.04
85560;BME280;76003;49.038;16.594;2024-02-26T05:38:54;98155.59;;;5.03;90.46
85560;BME280;76003;49.038;16.594;2024-02-26T05:42:20;98205.50;;;5.31;90.98
85560;BME280;76003;49.038;16.594;2024-02-26T05:44:46;98220.72;;;5.22;90.87
85560;BME280;76003;49.038;16.594;2024-02-26T05:47:33;98203.72;;;5.11;90.72
85560;BME280;76003;49.038;16.594;2024-02-26T05:50:00;98211.81;;;5.16;90.78
85560;BME280;76003;49.038;16.594;2024-02-26T05:52:47;98228.81;;;5.27;91.26
85560;BME280;76003;49.038;16.594;2024-02-26T05:55:27;98218.25;;;5.25;90.92
85560;BME280;76003;49.038;16.594;2024-02-26T05:58:08;98214.03;;;5.04;90.47
85560;BME280;76003;49.038;16.594;2024-02-26T06:00:49;98229.41;;;5.14;91.16
85560;BME280;76003;49.038;16.594;2024-02-26T06:03:30;98239.91;;;5.25;90.52
85560;BME280;76003;49.038;16.594;2024-02-26T06:06:11;98190.81;;;4.93;90.81
85560;BME280;76003;49.038;16.594;2024-02-26T06:08:52;98235.03;;;5.27;91.35
85560;BME280;76003;49.038;16.594;2024-02-26T06:11:32;98216.63;;;5.24;90.71
85560;BME280;76003;49.038;16.594;2024-02-26T06:13:58;98197.50;;;5.11;90.36
85560;BME280;76003;49.038;16.594;2024-02-26T06:16:46;98226.53;;;5.44;90.08
85560;BME280;76003;49.038;16.594;2024-02-26T06:19:26;98236.56;;;5.43;89.94
85560;BME280;76003;49.038;16.594;2024-02-26T06:21:52;98223.47;;;5.60;89.82
85560;BME280;76003;49.038;16.594;2024-02-26T06:24:39;98243.47;;;6.13;88.33
85560;BME280;76003;49.038;16.594;2024-02-26T06:27:05;98262.91;;;6.82;85.97
85560;BME280;76003;49.038;16.594;2024-02-26T06:29:51;98247.09;;;7.36;83.28
85560;BME280;76003;49.038;16.594;2024-02-26T06:32:31;98235.50;;;7.86;80.79
85560;BME280;76003;49.038;16.594;2024-02-26T06:35:12;98255.38;;;8.55;77.86
85560;BME280;76003;49.038;16.594;2024-02-26T06:37:52;98263.31;;;9.11;75.53
85560;BME280;76003;49.038;16.594;2024-02-26T06:40:33;98209.78;;;9.07;73.63
85560;BME280;76003;49.038;16.594;2024-02-26T06:43:13;98271.19;;;9.67;72.43
85560;BME280;76003;49.038;16.594;2024-02-26T06:45:54;98263.78;;;9.81;71.94
85560;BME280;76003;49.038;16.594;2024-02-26T06:48:23;98271.63;;;10.09;70.20
85560;BME280;76003;49.038;16.594;2024-02-26T06:51:09;98276.94;;;10.28;69.93
85560;BME280;76003;49.038;16.594;2024-02-26T06:53:50;98273.50;;;10.66;68.70
85560;BME280;76003;49.038;16.594;2024-02-26T06:56:30;98279.72;;;10.80;67.13
85560;BME280;76003;49.038;16.594;2024-02-26T06:58:56;98261.22;;;11.08;66.25
85560;BME280;76003;49.038;16.594;2024-02-26T07:01:53;98268.66;;;10.85;66.40
85560;BME280;76003;49.038;16.594;2024-02-26T07:04:20;98252.56;;;10.53;67.19
85560;BME280;76003;49.038;16.594;2024-02-26T07:07:07;98250.81;;;10.88;65.99
85560;BME280;76003;49.038;16.594;2024-02-26T07:09:48;98278.94;;;11.58;64.16
85560;BME280;76003;49.038;16.594;2024-02-26T07:12:31;98264.06;;;11.81;62.45
85560;BME280;76003;49.038;16.594;2024-02-26T07:15:12;98280.69;;;12.10;61.43
85560;BME280;76003;49.038;16.594;2024-02-26T07:17:53;98250.41;;;12.57;60.31
85560;BME280;76003;49.038;16.594;2024-02-26T07:20:33;98258.53;;;13.17;57.54
85560;BME280;76003;49.038;16.594;2024-02-26T07:23:05;98274.81;;;13.14;57.70
85560;BME280;76003;49.038;16.594;2024-02-26T07:25:52;98262.84;;;13.27;57.52
85560;BME280;76003;49.038;16.594;2024-02-26T07:28:33;98273.44;;;12.73;58.96
85560;BME280;76003;49.038;16.594;2024-02-26T07:31:14;98268.94;;;12.52;59.26
85560;BME280;76003;49.038;16.594;2024-02-26T07:33:40;98269.53;;;13.00;58.01
85560;BME280;76003;49.038;16.594;2024-02-26T07:36:26;98281.56;;;13.16;58.83
85560;BME280;76003;49.038;16.594;2024-02-26T07:39:02;98255.91;;;13.21;57.03
85560;BME280;76003;49.038;16.594;2024-02-26T07:41:49;98279.22;;;13.73;55.66
85560;BME280;76003;49.038;16.594;2024-02-26T07:44:33;98281.44;;;13.13;56.67
85560;BME280;76003;49.038;16.594;2024-02-26T07:47:13;98272.38;;;13.21;56.92
85560;BME280;76003;49.038;16.594;2024-02-26T07:49:53;98283.06;;;13.51;56.72
85560;BME280;76003;49.038;16.594;2024-02-26T07:52:34;98251.22;;;12.49;57.95
85560;BME280;76003;49.038;16.594;2024-02-26T07:55:15;98278.06;;;11.79;61.05
85560;BME280;76003;49.038;16.594;2024-02-26T07:57:55;98260.50;;;12.82;59.27
85560;BME280;76003;49.038;16.594;2024-02-26T08:00:21;98249.63;;;13.20;55.70
85560;BME280;76003;49.038;16.594;2024-02-26T08:03:07;98274.66;;;13.56;56.23
85560;BME280;76003;49.038;16.594;2024-02-26T08:05:48;98291.97;;;13.48;55.53
85560;BME280;76003;49.038;16.594;2024-02-26T08:08:22;98292.97;;;12.55;57.60
85560;BME280;76003;49.038;16.594;2024-02-26T08:11:08;98276.34;;;12.68;58.66
85560;BME280;76003;49.038;16.594;2024-02-26T08:13:49;98275.97;;;12.95;58.23
85560;BME280;76003;49.038;16.594;2024-02-26T08:16:15;98272.16;;;12.45;59.44
85560;BME280;76003;49.038;16.594;2024-02-26T08:19:01;98274.84;;;11.86;60.29
85560;BME280;76003;49.038;16.594;2024-02-26T08:21:41;98266.53;;;11.52;61.48
85560;BME280;76003;49.038;16.594;2024-02-26T08:24:23;98265.66;;;11.65;61.70
85560;BME280;76003;49.038;16.594;2024-02-26T08:27:03;98276.66;;;12.07;60.55
85560;BME280;76003;49.038;16.594;2024-02-26T08:29:29;98268.78;;;12.65;58.03
85560;BME280;76003;49.038;16.594;2024-02-26T08:33:11;98298.44;;;12.29;58.71
85560;BME280;76003;49.038;16.594;2024-02-26T08:35:39;98282.00;;;12.46;58.64
85560;BME280;76003;49.038;16.594;2024-02-26T08:38:41;98267.31;;;12.59;58.35
85560;BME280;76003;49.038;16.594;2024-02-26T08:42:07;98288.38;;;13.85;54.84
85560;BME280;76003;49.038;16.594;2024-02-26T08:44:33;98269.91;;;13.94;54.35
85560;BME280;76003;49.038;16.594;2024-02-26T08:47:19;98258.09;;;14.23;53.80
85560;BME280;76003;49.038;16.594;2024-02-26T08:50:44;98282.22;;;13.88;53.98
85560;BME280;76003;49.038;16.594;2024-02-26T08:53:11;98256.63;;;13.09;54.93
85560;BME280;76003;49.038;16.594;2024-02-26T08:55:57;98281.47;;;12.95;56.30
85560;BME280;76003;49.038;16.594;2024-02-26T08:59:22;98264.47;;;13.57;53.85
85560;BME280;76003;49.038;16.594;2024-02-26T09:02:48;98250.84;;;13.40;54.07
85560;BME280;76003;49.038;16.594;2024-02-26T09:05:15;98274.50;;;13.53;54.83
85560;BME280;76003;49.038;16.594;2024-02-26T09:08:57;98267.66;;;14.17;52.80
85560;BME280;76003;49.038;16.594;2024-02-26T09:11:24;98262.13;;;14.25;52.82
85560;BME280;76003;49.038;16.594;2024-02-26T09:15:07;98255.25;;;15.17;50.80
85560;BME280;76003;49.038;16.594;2024-02-26T09:17:47;98287.78;;;15.03;50.79
85560;BME280;76003;49.038;16.594;2024-02-26T09:20:16;98264.16;;;14.69;50.03
85560;BME280;76003;49.038;16.594;2024-02-26T09:23:06;98262.34;;;14.12;50.67
85560;BME280;76003;49.038;16.594;2024-02-26T09:25:46;98278.97;;;14.77;49.80
85560;BME280;76003;49.038;16.594;2024-02-26T09:28:12;98272.66;;;15.77;49.75
85560;BME280;76003;49.038;16.594;2024-02-26T09:30:58;98258.28;;;16.08;46.21
85560;BME280;76003;49.038;16.594;2024-02-26T09:33:24;98272.53;;;15.98;46.65
85560;BME280;76003;49.038;16.594;2024-02-26T09:37:07;98279.69;;;17.80;44.40
85560;BME280;76003;49.038;16.594;2024-02-26T09:39:47;98287.19;;;17.21;42.30
85560;BME280;76003;49.038;16.594;2024-02-26T09:42:31;98268.81;;;16.97;40.95
85560;BME280;76003;49.038;16.594;2024-02-26T09:45:21;98284.47;;;15.09;44.33
85560;BME280;76003;49.038;16.594;2024-02-26T09:47:48;98279.13;;;15.25;45.31
85560;BME280;76003;49.038;16.594;2024-02-26T09:50:40;98273.00;;;15.07;44.46
85560;BME280;76003;49.038;16.594;2024-02-26T09:53:21;98286.16;;;14.69;44.51
85560;BME280;76003;49.038;16.594;2024-02-26T09:55:48;98288.44;;;14.26;45.50
85560;BME280;76003;49.038;16.594;2024-02-26T09:58:35;98276.44;;;14.72;44.57
85560;BME280;76003;49.038;16.594;2024-02-26T10:01:19;98236.22;;;14.67;43.75
85560;BME280;76003;49.038;16.594;2024-02-26T10:04:00;98281.16;;;14.51;45.17
85560;BME280;76003;49.038;16.594;2024-02-26T10:06:42;98279.59;;;14.21;45.53
85560;BME280;76003;49.038;16.594;2024-02-26T10:09:24;98260.84;;;15.08;44.39
85560;BME280;76003;49.038;16.594;2024-02-26T10:11:50;98273.53;;;14.89;43.52
85560;BME280;76003;49.038;16.594;2024-02-26T10:14:37;98268.94;;;14.60;44.90
85560;BME280;76003;49.038;16.594;2024-02-26T10:18:06;98288.22;;;15.37;44.21
85560;BME280;76003;49.038;16.594;2024-02-26T10:21:32;98299.47;;;16.28;41.33
85560;BME280;76003;49.038;16.594;2024-02-26T10:23:57;98297.91;;;15.23;43.12
85560;BME280;76003;49.038;16.594;2024-02-26T10:26:47;98291.59;;;15.67;41.81
85560;BME280;76003;49.038;16.594;2024-02-26T10:29:27;98276.78;;;15.95;42.69
85560;BME280;76003;49.038;16.594;2024-02-26T10:31:53;98298.69;;;16.67;40.49
85560;BME280;76003;49.038;16.594;2024-02-26T10:34:40;98293.78;;;16.61;41.04
85560;BME280;76003;49.038;16.594;2024-02-26T10:37:23;98291.47;;;17.18;39.65
85560;BME280;76003;49.038;16.594;2024-02-26T10:40:04;98278.50;;;16.63;39.93
85560;BME280;76003;49.038;16.594;2024-02-26T10:42:48;98255.56;;;15.03;42.37
85560;BME280;76003;49.038;16.594;2024-02-26T10:45:28;98275.97;;;15.83;41.25
85560;BME280;76003;49.038;16.594;2024-02-26T10:47:54;98304.59;;;16.93;40.26
85560;BME280;76003;49.038;16.594;2024-02-26T10:50:41;98299.41;;;15.89;41.47
85560;BME280;76003;49.038;16.594;2024-02-26T10:53:22;98306.72;;;15.16;42.00
85560;BME280;76003;49.038;16.594;2024-02-26T10:56:04;98295.34;;;15.06;41.88
85560;BME280;76003;49.038;16.594;2024-02-26T10:58:41;98272.34;;;14.57;42.68
85560;BME280;76003;49.038;16.594;2024-02-26T11:01:29;98279.25;;;14.84;42.85
85560;BME280;76003;49.038;16.594;2024-02-26T11:03:57;98283.84;;;15.24;41.89
85560;BME280;76003;49.038;16.594;2024-02-26T11:06:57;98270.41;;;16.31;40.82
85560;BME280;76003;49.038;16.594;2024-02-26T11:09:39;98271.03;;;16.64;40.31
85560;BME280;76003;49.038;16.594;2024-02-26T11:12:24;98288.44;;;16.28;40.44
85560;BME280;76003;49.038;16.594;2024-02-26T11:15:05;98270.53;;;15.26;41.70
85560;BME280;76003;49.038;16.594;2024-02-26T11:17:47;98273.66;;;14.10;45.59
85560;BME280;76003;49.038;16.594;2024-02-26T11:20:29;98292.59;;;13.83;46.20
85560;BME280;76003;49.038;16.594;2024-02-26T11:22:58;98260.41;;;13.63;46.83
85560;BME280;76003;49.038;16.594;2024-02-26T11:25:44;98246.66;;;12.87;47.46
85560;BME280;76003;49.038;16.594;2024-02-26T11:28:27;98280.91;;;13.28;47.82
85560;BME280;76003;49.038;16.594;2024-02-26T11:31:09;98283.16;;;13.63;47.05
85560;BME280;76003;49.038;16.594;2024-02-26T11:33:35;98272.59;;;12.98;48.04
85560;BME280;76003;49.038;16.594;2024-02-26T11:36:24;98285.81;;;13.05;49.06
85560;BME280;76003;49.038;16.594;2024-02-26T11:38:50;98259.09;;;13.31;47.49
85560;BME280;76003;49.038;16.594;2024-02-26T11:42:33;98265.66;;;12.92;48.99
85560;BME280;76003;49.038;16.594;2024-02-26T11:44:59;98293.88;;;13.10;47.76
85560;BME280;76003;49.038;16.594;2024-02-26T11:47:27;98243.38;;;13.02;48.37
85560;BME280;76003;49.038;16.594;2024-02-26T11:50:36;98274.63;;;13.19;48.04
85560;BME280;76003;49.038;16.594;2024-02-26T11:56:13;98269.03;;;13.44;48.57
85560;BME280;76003;49.038;16.594;2024-02-26T11:58:40;98288.28;;;13.36;47.93
85560;BME280;76003;49.038;16.594;2024-02-26T12:01:40;98254.22;;;12.99;47.20
85560;BME280;76003;49.038;16.594;2024-02-26T12:04:26;98266.97;;;13.41;47.29
85560;BME280;76003;49.038;16.594;2024-02-26T12:07:08;98244.50;;;13.10;46.94
85560;BME280;76003;49.038;16.594;2024-02-26T12:09:39;98268.16;;;13.23;47.49
85560;BME280;76003;49.038;16.594;2024-02-26T12:12:27;98268.94;;;13.32;47.73
85560;BME280;76003;49.038;16.594;2024-02-26T12:14:56;98240.00;;;12.97;46.34
85560;BME280;76003;49.038;16.594;2024-02-26T12:17:48;98241.88;;;13.22;47.02
85560;BME280;76003;49.038;16.594;2024-02-26T12:20:14;98235.28;;;13.15;45.21
85560;BME280;76003;49.038;16.594;2024-02-26T12:22:57;98244.63;;;13.22;46.27
85560;BME280;76003;49.038;16.594;2024-02-26T12:25:37;98242.34;;;13.24;45.38
85560;BME280;76003;49.038;16.594;2024-02-26T12:28:18;98218.63;;;13.28;46.12
85560;BME280;76003;49.038;16.594;2024-02-26T12:30:58;98222.03;;;13.54;45.08
85560;BME280;76003;49.038;16.594;2024-02-26T12:33:26;98257.34;;;13.64;44.33
85560;BME280;76003;49.038;16.594;2024-02-26T12:37:08;98239.00;;;13.56;44.70
85560;BME280;76003;49.038;16.594;2024-02-26T12:39:50;98246.81;;;13.66;44.47
85560;BME280;76003;49.038;16.594;2024-02-26T12:42:16;98223.94;;;13.62;44.17
85560;BME280;76003;49.038;16.594;2024-02-26T12:45:19;98227.59;;;13.95;45.80
85560;BME280;76003;49.038;16.594;2024-02-26T12:48:01;98261.19;;;13.63;42.79
85560;BME280;76003;49.038;16.594;2024-02-26T12:50:27;98237.16;;;13.31;44.23
85560;BME280;76003;49.038;16.594;2024-02-26T12:53:13;98258.19;;;13.56;44.52
85560;BME280;76003;49.038;16.594;2024-02-26T12:55:39;98226.59;;;13.50;43.56
85560;BME280;76003;49.038;16.594;2024-02-26T12:58:29;98239.31;;;13.55;44.93
85560;BME280;76003;49.038;16.594;2024-02-26T13:01:14;98207.00;;;13.31;43.60
85560;BME280;76003;49.038;16.594;2024-02-26T13:03:56;98247.09;;;13.44;45.01
85560;BME280;76003;49.038;16.594;2024-02-26T13:06:36;98240.41;;;13.25;45.46
85560;BME280;76003;49.038;16.594;2024-02-26T13:09:03;98237.88;;;13.11;45.53
85560;BME280;76003;49.038;16.594;2024-02-26T13:12:07;98241.16;;;13.05;45.38
85560;BME280;76003;49.038;16.594;2024-02-26T13:15:32;98259.38;;;13.09;44.97
85560;BME280;76003;49.038;16.594;2024-02-26T13:18:14;98243.69;;;13.18;45.22
85560;BME280;76003;49.038;16.594;2024-02-26T13:20:41;98251.25;;;13.21;44.58
85560;BME280;76003;49.038;16.594;2024-02-26T13:24:23;98247.22;;;13.19;44.89
85560;BME280;76003;49.038;16.594;2024-02-26T13:26:54;98262.78;;;13.35;45.22
85560;BME280;76003;49.038;16.594;2024-02-26T13:29:41;98232.53;;;13.15;45.31
85560;BME280;76003;49.038;16.594;2024-02-26T13:32:10;98259.09;;;13.31;45.12
85560;BME280;76003;49.038;16.594;2024-02-26T13:35:05;98248.78;;;13.28;45.49
85560;BME280;76003;49.038;16.594;2024-02-26T13:37:46;98269.41;;;13.43;45.97
85560;BME280;76003;49.038;16.594;2024-02-26T13:40:12;98263.06;;;13.51;46.18
85560;BME280;76003;49.038;16.594;2024-02-26T13:42:53;98271.78;;;13.44;45.73
85560;BME280;76003;49.038;16.594;2024-02-26T13:45:19;98230.09;;;13.22;45.54
85560;BME280;76003;49.038;16.594;2024-02-26T13:48:07;98237.88;;;13.11;45.06
85560;BME280;76003;49.038;16.594;2024-02-26T13:50:35;98254.78;;;13.22;44.46
85560;BME280;76003;49.038;16.594;2024-02-26T13:53:00;98261.53;;;13.24;44.49
85560;BME280;76003;49.038;16.594;2024-02-26T13:55:26;98271.66;;;13.32;45.13
85560;BME280;76003;49.038;16.594;2024-02-26T13:59:10;98244.00;;;13.17;43.99
85560;BME280;76003;49.038;16.594;2024-02-26T14:01:35;98248.22;;;13.06;45.29
85560;BME280;76003;49.038;16.594;2024-02-26T14:04:01;98271.03;;;13.35;45.75
85560;BME280;76003;49.038;16.594;2024-02-26T14:06:48;98269.09;;;13.36;45.33
85560;BME280;76003;49.038;16.594;2024-02-26T14:09:14;98233.91;;;13.00;45.55
85560;BME280;76003;49.038;16.594;2024-02-26T14:12:05;98250.19;;;13.05;45.71
85560;BME280;76003;49.038;16.594;2024-02-26T14:14:30;98274.94;;;13.26;45.97
85560;BME280;76003;49.038;16.594;2024-02-26T14:16:58;98253.72;;;13.06;46.59
85560;BME280;76003;49.038;16.594;2024-02-26T14:19:24;98286.91;;;13.21;47.12
85560;BME280;76003;49.038;16.594;2024-02-26T14:21:50;98298.81;;;13.25;47.30
85560;BME280;76003;49.038;16.594;2024-02-26T14:24:36;98255.19;;;13.03;48.01
85560;BME280;76003;49.038;16.594;2024-02-26T14:27:02;98291.13;;;13.10;48.18
85560;BME280;76003;49.038;16.594;2024-02-26T14:29:28;98287.09;;;13.08;47.59